Latest Coastal Weather Observations for Rundle Island

IDQ60701

Issued at 3:42 am EST Saturday 7 March 2015 (issued every 10 minutes, with the page automatically refreshed every 10 minutes)

About coastal observations | Map of coastal stations | Coastal observations for QLD | Marine services | Other Formats
Station Details ID: 039322 Name: RUNDLE ISLAND Lat: -23.53 Lon: 151.28 Height: 19.8 m
Data from the previous 72 hours. | See also: Recent months at Rundle Island
Date/Time
EST
Temp

°C
Wind Pressure Rain
since 9am
mm
Weather Cloud Vis
km
Sea
Height
m
Swell
Dir
 
Speed
knots
Gust
knots
hPa Trend Height
m
Period
s
Dir
07/03:30am 26.8 ESE 9 10 1006.4 - - - - - - - - -
07/03:00am 26.9 ESE 10 11 1006.5 - - - - - - - - -
07/02:30am 27.0 ESE 12 14 1006.3 - - - - - - - - -
07/02:00am 27.0 E 9 10 1006.3 - - - - - - - - -
07/01:30am 27.1 ESE 9 10 1006.6 - - - - - - - - -
07/01:00am 27.1 ESE 10 11 1006.8 - - - - - - - - -
07/12:30am 27.2 SE 10 11 1007.2 - - - - - - - - -
07/12:00am 27.3 SE 6 7 1007.4 - - - - - - - - -
 
Date/Time
EST
Temp

°C
Wind Pressure Rain
since 9am
mm
Weather Cloud Vis
km
Sea
Height
m
Swell
Dir
 
Speed
knots
Gust
knots
hPa Trend Height
m
Period
s
Dir
06/11:30pm 27.3 SSE 5 5 1007.5 - - - - - - - - -
06/11:00pm 27.2 ESE 2 3 1007.5 - - - - - - - - -
06/10:30pm 27.3 ENE 3 4 1007.3 - - - - - - - - -
06/10:00pm 27.4 E 4 6 1007.2 - - - - - - - - -
06/09:30pm 27.5 ENE 7 8 1006.7 - - - - - - - - -
06/09:00pm 27.6 ENE 8 9 1006.6 - - - - - - - - -
06/08:30pm 27.4 ENE 8 9 1006.4 - - - - - - - - -
06/08:00pm 27.6 ENE 9 11 1005.8 - - - - - - - - -
06/07:30pm 27.5 ENE 9 11 1005.3 - - - - - - - - -
06/07:00pm 27.5 E 11 12 1005.0 - - - - - - - - -
06/06:30pm 27.6 E 11 12 1004.8 - - - - - - - - -
06/06:00pm 27.8 E 12 14 1004.6 - - - - - - - - -
06/05:30pm 28.0 E 12 14 1004.3 - - - - - - - - -
06/05:00pm 28.2 ESE 11 13 1004.5 - - - - - - - - -
06/04:30pm 28.0 E 12 13 1004.5 - - - - - - - - -
06/04:00pm 28.2 E 12 13 1004.5 - - - - - - - - -
06/03:30pm 28.2 ESE 12 13 1004.3 - - - - - - - - -
06/03:00pm 28.3 ESE 13 14 1004.7 - - - - - - - - -
06/02:30pm 28.1 ESE 12 14 1005.1 - - - - - - - - -
06/02:00pm 28.0 SE 14 15 1005.4 - - - - - - - - -
06/01:30pm 27.6 SE 15 18 1005.8 - - - - - - - - -
06/01:00pm 27.6 SE 16 19 1006.2 - - - - - - - - -
06/12:30pm 27.6 SE 18 22 1006.4 - - - - - - - - -
06/12:00pm 27.6 SE 18 20 1006.7 - - - - - - - - -
06/11:30am 27.5 SE 18 21 1007.0 - - - - - - - - -
06/11:00am 27.2 SE 17 20 1007.3 - - - - - - - - -
06/10:30am 27.1 SE 16 18 1007.5 - - - - - - - - -
06/10:00am 26.8 SE 14 16 1007.6 - - - - - - - - -
06/09:30am 26.9 SSE 17 19 1007.6 - - - - - - - - -
06/09:00am 26.6 SSE 15 18 1007.8 - - - - - - - - -
06/08:30am 26.8 SE 20 23 1007.4 - - - - - - - - -
06/08:00am 26.9 SSE 23 25 1007.1 - - - - - - - - -
06/07:30am 27.1 S 15 21 1006.7 - - - - - - - - -
06/07:27am 26.9 S 13 21 1006.8 - - - - - - - - -
06/07:00am 26.3 SW 9 10 1006.3 - - - - - - - - -
06/06:30am 26.4 WSW 7 8 1006.0 - - - - - - - - -
06/06:00am 26.0 W 8 10 1005.7 - - - - - - - - -
06/05:30am 25.9 WSW 5 7 1005.4 - - - - - - - - -
06/05:00am 26.0 WNW 7 8 1005.1 - - - - - - - - -
06/04:30am 26.3 W 6 8 1005.0 - - - - - - - - -
06/04:00am 26.5 W 6 7 1004.9 - - - - - - - - -
06/03:30am 26.9 NW 8 9 1004.8 - - - - - - - - -
06/03:00am 27.1 NW 9 10 1005.0 - - - - - - - - -
06/02:30am 27.2 NW 9 11 1005.0 - - - - - - - - -
06/02:00am 27.2 NW 11 12 1005.1 - - - - - - - - -
06/01:30am 27.4 NNW 11 13 1005.3 - - - - - - - - -
06/01:00am 27.4 NNW 11 12 1005.6 - - - - - - - - -
06/12:30am 27.4 NNW 14 15 1005.4 - - - - - - - - -
06/12:00am 27.5 NNW 14 16 1005.6 - - - - - - - - -
 
Date/Time
EST
Temp

°C
Wind Pressure Rain
since 9am
mm
Weather Cloud Vis
km
Sea
Height
m
Swell
Dir
 
Speed
knots
Gust
knots
hPa Trend Height
m
Period
s
Dir
05/11:30pm 27.5 NNW 15 17 1005.7 - - - - - - - - -
05/11:00pm 27.5 NNW 14 15 1005.8 - - - - - - - - -
05/10:30pm 27.6 NNW 14 16 1005.6 - - - - - - - - -
05/10:00pm 27.4 N 13 15 1005.6 - - - - - - - - -
05/09:30pm 27.5 N 13 15 1005.7 - - - - - - - - -
05/09:00pm 27.6 NNW 13 14 1005.7 - - - - - - - - -
05/08:30pm 27.6 N 13 14 1005.6 - - - - - - - - -
05/08:00pm 27.7 N 12 14 1005.6 - - - - - - - - -
05/07:30pm 27.6 N 12 13 1005.5 - - - - - - - - -
05/07:00pm 27.7 N 12 13 1005.4 - - - - - - - - -
05/06:30pm 27.7 NNW 10 11 1005.5 - - - - - - - - -
05/06:00pm 27.8 NNW 13 14 1005.5 - - - - - - - - -
05/05:30pm 28.1 NNW 13 14 1005.6 - - - - - - - - -
05/05:00pm 27.9 N 14 15 1005.4 - - - - - - - - -
05/04:30pm 27.8 N 13 15 1005.3 - - - - - - - - -
05/04:00pm 28.0 N 14 15 1005.5 - - - - - - - - -
05/03:30pm 28.0 N 14 15 1005.8 - - - - - - - - -
05/03:00pm 27.7 N 13 15 1006.0 - - - - - - - - -
05/02:30pm 27.7 N 13 15 1006.3 - - - - - - - - -
05/02:00pm 27.6 N 11 13 1006.8 - - - - - - - - -
05/01:30pm 27.4 NNW 10 12 1007.3 - - - - - - - - -
05/01:00pm 27.1 NNW 11 13 1008.0 - - - - - - - - -
05/12:30pm 27.1 NNW 10 11 1008.5 - - - - - - - - -
05/12:00pm 27.1 NNW 9 10 1009.1 - - - - - - - - -
05/11:30am 27.2 NNW 8 10 1009.5 - - - - - - - - -
05/11:00am 27.3 NNW 5 7 1009.9 - - - - - - - - -
05/10:30am 27.2 NNW 5 7 1010.3 - - - - - - - - -
05/10:00am 26.8 NNW 5 6 1010.7 - - - - - - - - -
05/09:30am 26.6 NNW 6 7 1010.5 - - - - - - - - -
05/09:00am 26.6 NNW 5 6 1010.6 - - - - - - - - -
05/08:30am 26.2 CALM 0 2 1010.6 - - - - - - - - -
05/08:00am 25.7 W 2 3 1010.5 - - - - - - - - -
05/07:30am 25.8 WSW 4 5 1010.4 - - - - - - - - -
05/07:00am 25.6 SW 4 5 1010.1 - - - - - - - - -
05/06:30am 25.7 SW 2 3 1009.8 - - - - - - - - -
05/06:00am 25.8 SW 1 5 1009.6 - - - - - - - - -
05/05:30am 25.9 CALM 0 2 1009.4 - - - - - - - - -
05/05:00am 26.0 NNE 2 3 1009.2 - - - - - - - - -
05/04:30am 26.1 N 2 3 1009.3 - - - - - - - - -
05/04:00am 26.1 NNE 3 4 1009.3 - - - - - - - - -
05/03:30am 26.1 NNE 3 4 1009.3 - - - - - - - - -
05/03:00am 26.1 NE 4 5 1009.5 - - - - - - - - -
05/02:30am 26.1 ENE 4 5 1009.8 - - - - - - - - -
05/02:00am 26.1 ENE 5 6 1010.1 - - - - - - - - -
05/01:30am 26.1 E 4 6 1010.5 - - - - - - - - -
05/01:00am 26.2 E 5 6 1010.7 - - - - - - - - -
05/12:30am 26.2 ENE 6 8 1011.1 - - - - - - - - -
05/12:00am 26.3 E 5 7 1011.4 - - - - - - - - -
 
Date/Time
EST
Temp

°C
Wind Pressure Rain
since 9am
mm
Weather Cloud Vis
km
Sea
Height
m
Swell
Dir
 
Speed
knots
Gust
knots
hPa Trend Height
m
Period
s
Dir
04/11:30pm 26.2 ENE 6 7 1011.8 - - - - - - - - -
04/11:00pm 26.4 ENE 6 7 1012.0 - - - - - - - - -
04/10:30pm 26.4 E 8 10 1012.0 - - - - - - - - -
04/10:00pm 26.4 E 9 11 1011.9 - - - - - - - - -
04/09:30pm 26.5 E 9 10 1011.9 - - - - - - - - -
04/09:00pm 26.4 E 8 9 1011.9 - - - - - - - - -
04/08:30pm 26.5 E 8 10 1011.9 - - - - - - - - -
04/08:00pm 26.5 E 9 10 1011.6 - - - - - - - - -
04/07:30pm 26.6 E 9 10 1011.5 - - - - - - - - -
04/07:00pm 26.6 E 8 9 1011.2 - - - - - - - - -
04/06:30pm 26.6 E 8 10 1010.9 - - - - - - - - -
04/06:00pm 26.9 E 9 10 1010.8 - - - - - - - - -
04/05:30pm 26.9 E 9 10 1010.7 - - - - - - - - -
04/05:00pm 27.1 E 9 11 1010.6 - - - - - - - - -
04/04:30pm 27.4 E 9 10 1010.6 - - - - - - - - -
04/04:00pm 27.3 E 10 12 1010.6 - - - - - - - - -
04/03:30pm 27.2 E 10 12 1010.6 - - - - - - - - -
04/03:00pm 27.2 ESE 10 11 1010.8 - - - - - - - - -
04/02:30pm 27.2 ESE 11 13 1011.1 - - - - - - - - -
04/02:00pm 27.2 SE 11 13 1011.4 - - - - - - - - -
04/01:30pm 26.8 SE 11 13 1011.7 - - - - - - - - -
04/01:00pm 27.0 SE 11 13 1012.1 - - - - - - - - -
04/12:30pm 26.6 SE 12 13 1012.5 - - - - - - - - -
04/12:00pm 26.7 SE 12 14 1012.6 - - - - - - - - -
04/11:30am 26.6 SE 12 14 1012.8 - - - - - - - - -
04/11:00am 26.4 SE 12 15 1012.9 - - - - - - - - -
04/10:30am 26.2 SE 12 15 1013.2 - - - - - - - - -
04/10:00am 25.7 SSE 12 14 1013.3 - - - - - - - - -
04/09:30am 25.8 SSE 13 16 1013.4 - - - - - - - - -
04/09:00am 25.6 SSE 14 17 1013.2 - - - - - - - - -
04/08:30am 25.1 SE 14 16 1013.0 - - - - - - - - -
04/08:00am 25.0 SSE 15 17 1012.7 - - - - - - - - -
04/07:30am 25.2 SSE 14 18 1012.6 - - - - - - - - -
04/07:00am 25.0 SSE 15 18 1012.4 - - - - - - - - -
04/06:30am 24.9 SSE 15 17 1012.2 - - - - - - - - -
04/06:00am 25.0 SSE 16 19 1012.0 - - - - - - - - -
04/05:30am 25.0 SSE 16 18 1011.7 - - - - - - - - -
04/05:00am 25.1 SSE 17 20 1011.4 - - - - - - - - -
04/04:30am 25.4 SSE 15 18 1011.4 - - - - - - - - -
04/04:00am 25.3 SSE 16 19 1011.2 - - - - - - - - -

Other Formats:

Comma delimited format used in spreadsheet applications
http://www.bom.gov.au/fwo/IDQ60701/IDQ60701.94378.axf

JavaScript Object Notation format (JSON) in row-major order
http://www.bom.gov.au/fwo/IDQ60701/IDQ60701.94378.json